createdAt,value
2023-04-18T00:01:51.187Z,101639.69
2023-04-18T00:04:18.537Z,101635.34
2023-04-18T00:06:47.225Z,101636.28
2023-04-18T00:09:14.704Z,101634.59
2023-04-18T00:11:41.341Z,101626.84
2023-04-18T00:14:08.611Z,101649.72
2023-04-18T00:16:36.371Z,101636.59
2023-04-18T00:19:04.895Z,101630.53
2023-04-18T00:21:32.142Z,101640.25
2023-04-18T00:24:00.101Z,101628.84
2023-04-18T00:26:28.059Z,101627.94
2023-04-18T00:28:54.729Z,101626.16
2023-04-18T00:31:21.478Z,101627.94
2023-04-18T00:33:49.280Z,101635.88
2023-04-18T00:36:15.866Z,101633.31
2023-04-18T00:38:42.535Z,101632.53
2023-04-18T00:41:09.114Z,101629.97
2023-04-18T00:43:35.976Z,101633.47
2023-04-18T00:46:02.729Z,101638.72
2023-04-18T00:48:30.514Z,101629.94
2023-04-18T00:50:57.402Z,101635.19
2023-04-18T00:53:24.181Z,101636.97
2023-04-18T00:55:51.303Z,101636.94
2023-04-18T00:58:17.980Z,101637.75
2023-04-18T01:00:47.595Z,101641.16
2023-04-18T01:03:14.833Z,101633.19
2023-04-18T01:05:41.694Z,101639.34
2023-04-18T01:08:09.280Z,101643.81
2023-04-18T01:10:36.169Z,101646.53
2023-04-18T01:13:21.454Z,101644.03
2023-04-18T01:15:50.039Z,101648.44
2023-04-18T01:18:17.314Z,101637.91
2023-04-18T01:20:49.422Z,101643.16
2023-04-18T01:23:17.210Z,101643.16
2023-04-18T01:25:44.925Z,101641.38
2023-04-18T01:28:15.161Z,101632.59
2023-04-18T01:30:41.879Z,101636.97
2023-04-18T01:33:09.870Z,101629.03
2023-04-18T01:35:36.538Z,101627.31
2023-04-18T01:38:03.479Z,101634.34
2023-04-18T01:40:30.342Z,101630.91
2023-04-18T01:42:57.002Z,101626.69
2023-04-18T01:45:23.813Z,101632.09
2023-04-18T01:47:50.547Z,101632.22
2023-04-18T01:50:17.243Z,101630.56
2023-04-18T01:52:43.855Z,101626.28
2023-04-18T01:55:10.707Z,101630.69
2023-04-18T01:57:37.436Z,101626.28
2023-04-18T02:00:06.551Z,101641.16
2023-04-18T02:02:33.353Z,101637.53
2023-04-18T02:05:00.474Z,101640.13
2023-04-18T02:07:27.037Z,101634.69
2023-04-18T02:09:53.664Z,101636.44
2023-04-18T02:12:21.055Z,101642.53
2023-04-18T02:14:52.374Z,101633.75
2023-04-18T02:17:21.624Z,101636.31
2023-04-18T02:19:48.333Z,101628.38
2023-04-18T02:22:14.958Z,101632.69
2023-04-18T02:24:41.656Z,101630.03
2023-04-18T02:27:08.360Z,101634.41
2023-04-18T02:29:35.022Z,101633.59
2023-04-18T02:32:02.436Z,101625.75
2023-04-18T02:34:29.104Z,101627.41
2023-04-18T02:36:55.688Z,101634.41
2023-04-18T02:39:22.332Z,101628.25
2023-04-18T02:41:48.876Z,101628.16
2023-04-18T02:44:17.080Z,101635.13
2023-04-18T02:46:44.485Z,101629.03
2023-04-18T02:49:11.166Z,101635.13
2023-04-18T02:51:37.829Z,101632.50
2023-04-18T02:54:05.271Z,101632.44
2023-04-18T02:56:31.864Z,101628.03
2023-04-18T02:58:58.475Z,101627.09
2023-04-18T03:01:25.218Z,101626.13
2023-04-18T03:03:52.270Z,101617.22
2023-04-18T03:06:21.388Z,101625.06
2023-04-18T03:08:48.017Z,101618.78
2023-04-18T03:11:14.574Z,101624.88
2023-04-18T03:13:41.126Z,101622.97
2023-04-18T03:16:08.691Z,101618.44
2023-04-18T03:18:35.287Z,101623.50
2023-04-18T03:21:01.854Z,101618.13
2023-04-18T03:23:29.291Z,101625.09
2023-04-18T03:25:55.921Z,101615.38
2023-04-18T03:28:22.567Z,101616.97
2023-04-18T03:30:49.204Z,101616.75
2023-04-18T03:33:18.845Z,101611.28
2023-04-18T03:35:45.540Z,101617.22
2023-04-18T03:38:12.528Z,101622.41
2023-04-18T03:40:39.126Z,101626.66
2023-04-18T03:43:05.829Z,101626.72
2023-04-18T03:45:32.622Z,101617.16
2023-04-18T03:47:59.298Z,101624.22
2023-04-18T03:50:26.017Z,101628.69
2023-04-18T03:52:54.401Z,101631.34
2023-04-18T03:55:21.857Z,101634.00
2023-04-18T03:57:48.429Z,101630.50
2023-04-18T04:00:16.224Z,101627.81
2023-04-18T04:02:42.955Z,101624.13
2023-04-18T04:05:10.013Z,101628.31
2023-04-18T04:07:37.661Z,101628.13
2023-04-18T04:10:04.581Z,101627.97
2023-04-18T04:12:31.239Z,101626.84
2023-04-18T04:14:59.679Z,101629.38
2023-04-18T04:17:26.339Z,101630.25
2023-04-18T04:19:53.032Z,101633.97
2023-04-18T04:22:21.220Z,101626.00
2023-04-18T04:24:47.998Z,101628.38
2023-04-18T04:27:14.742Z,101633.41
2023-04-18T04:29:41.512Z,101625.19
2023-04-18T04:32:08.198Z,101621.53
2023-04-18T04:34:35.828Z,101619.50
2023-04-18T04:37:03.368Z,101624.53
2023-04-18T04:39:29.922Z,101627.03
2023-04-18T04:41:57.649Z,101624.28
2023-04-18T04:44:27.565Z,101630.19
2023-04-18T04:46:54.547Z,101617.03
2023-04-18T04:49:21.255Z,101623.91
2023-04-18T04:51:47.894Z,101630.59
2023-04-18T04:54:14.684Z,101625.09
2023-04-18T04:56:41.392Z,101626.97
2023-04-18T04:59:09.477Z,101633.03
2023-04-18T05:01:36.229Z,101627.66
2023-04-18T05:04:03.047Z,101626.16
2023-04-18T05:06:29.798Z,101625.16
2023-04-18T05:08:57.591Z,101633.75
2023-04-18T05:11:24.270Z,101638.19
2023-04-18T05:13:52.400Z,101639.44
2023-04-18T05:16:19.059Z,101642.47
2023-04-18T05:18:45.957Z,101646.91
2023-04-18T05:21:13.570Z,101650.06
2023-04-18T05:23:40.192Z,101645.50
2023-04-18T05:26:07.050Z,101645.91
2023-04-18T05:28:33.766Z,101649.28
2023-04-18T05:31:03.164Z,101641.91
2023-04-18T05:33:33.898Z,101647.31
2023-04-18T05:36:00.721Z,101645.91
2023-04-18T05:38:27.344Z,101647.06
2023-04-18T05:40:55.918Z,101641.44
2023-04-18T05:43:23.302Z,101642.75
2023-04-18T05:45:52.460Z,101644.78
2023-04-18T05:48:19.416Z,101644.19
2023-04-18T05:50:46.930Z,101640.63
2023-04-18T05:53:13.494Z,101644.03
2023-04-18T05:55:41.065Z,101649.13
2023-04-18T05:58:07.916Z,101642.59
2023-04-18T06:00:35.753Z,101636.84
2023-04-18T06:03:02.620Z,101643.19
2023-04-18T06:05:29.807Z,101640.81
2023-04-18T06:07:56.731Z,101644.50
2023-04-18T06:10:23.314Z,101637.84
2023-04-18T06:12:49.953Z,101646.13
2023-04-18T06:15:16.808Z,101642.09
2023-04-18T06:17:44.621Z,101645.91
2023-04-18T06:20:11.556Z,101640.91
2023-04-18T06:22:38.191Z,101640.53
2023-04-18T06:25:05.702Z,101644.56
2023-04-18T06:27:32.366Z,101636.09
2023-04-18T06:29:59.153Z,101645.38
2023-04-18T06:32:26.127Z,101640.69
2023-04-18T06:34:56.844Z,101643.13
2023-04-18T06:37:24.055Z,101644.31
2023-04-18T06:39:50.740Z,101635.59
2023-04-18T06:42:19.119Z,101644.59
2023-04-18T06:44:46.785Z,101645.94
2023-04-18T06:47:13.463Z,101653.78
2023-04-18T06:49:40.588Z,101649.38
2023-04-18T06:52:07.272Z,101644.38
2023-04-18T06:54:33.880Z,101653.00
2023-04-18T06:57:03.777Z,101663.47
2023-04-18T06:59:30.719Z,101648.22
2023-04-18T07:01:57.332Z,101647.22
2023-04-18T07:05:05.586Z,101644.34
2023-04-18T07:07:33.105Z,101650.81
2023-04-18T07:10:00.061Z,101653.16
2023-04-18T07:12:28.000Z,101654.53
2023-04-18T07:14:55.245Z,101650.75
2023-04-18T07:17:21.913Z,101653.38
2023-04-18T07:19:48.586Z,101658.34
2023-04-18T07:22:15.253Z,101663.78
2023-04-18T07:24:42.242Z,101658.59
2023-04-18T07:27:09.667Z,101658.00
2023-04-18T07:29:36.341Z,101652.47
2023-04-18T07:32:03.040Z,101647.41
2023-04-18T07:34:30.246Z,101652.75
2023-04-18T07:36:57.470Z,101644.41
2023-04-18T07:39:24.117Z,101641.34
2023-04-18T07:41:50.786Z,101646.59
2023-04-18T07:44:18.298Z,101645.75
2023-04-18T07:46:45.152Z,101660.19
2023-04-18T07:49:12.182Z,101646.31
2023-04-18T07:51:38.938Z,101646.81
2023-04-18T07:54:05.578Z,101656.44
2023-04-18T07:56:32.222Z,101651.13
2023-04-18T07:58:58.824Z,101656.50
2023-04-18T08:01:27.223Z,101644.41
2023-04-18T08:03:55.235Z,101652.84
2023-04-18T08:06:22.016Z,101652.56
2023-04-18T08:08:48.749Z,101659.34
2023-04-18T08:11:18.370Z,101660.47
2023-04-18T08:13:44.931Z,101664.88
2023-04-18T08:16:11.628Z,101661.28
2023-04-18T08:18:39.120Z,101657.91
2023-04-18T08:21:05.830Z,101658.91
2023-04-18T08:23:32.416Z,101664.34
2023-04-18T08:26:00.580Z,101665.31
2023-04-18T08:28:27.286Z,101667.19
2023-04-18T08:30:55.278Z,101670.38
2023-04-18T08:33:24.474Z,101665.25
2023-04-18T08:35:51.602Z,101668.59
2023-04-18T08:38:18.895Z,101670.19
2023-04-18T08:40:45.964Z,101678.25
2023-04-18T08:43:16.730Z,101677.75
2023-04-18T08:45:44.736Z,101677.25
2023-04-18T08:48:14.111Z,101679.66
2023-04-18T08:50:41.712Z,101678.78
2023-04-18T08:53:08.852Z,101684.72
2023-04-18T08:55:37.201Z,101684.59
2023-04-18T08:58:07.157Z,101680.63
2023-04-18T09:00:34.257Z,101683.63
2023-04-18T09:03:03.016Z,101682.16
2023-04-18T09:05:29.913Z,101684.72
2023-04-18T09:07:56.872Z,101685.44
2023-04-18T09:10:33.103Z,101692.00
2023-04-18T09:13:03.268Z,101699.78
2023-04-18T09:15:30.533Z,101688.63
2023-04-18T09:18:00.311Z,101708.16
2023-04-18T09:20:36.597Z,101679.81
2023-04-18T09:23:11.727Z,101688.94
2023-04-18T09:25:48.100Z,101690.44
2023-04-18T09:28:29.136Z,101672.38
2023-04-18T09:30:57.676Z,101680.53
2023-04-18T09:33:30.230Z,101684.00
2023-04-18T09:35:57.341Z,101674.53
2023-04-18T09:38:40.464Z,101678.66
2023-04-18T09:41:11.548Z,101700.38
2023-04-18T09:43:38.871Z,101688.81
2023-04-18T09:46:07.365Z,101696.66
2023-04-18T09:48:34.194Z,101686.00
2023-04-18T09:51:06.272Z,101690.78
2023-04-18T09:53:49.039Z,101688.13
2023-04-18T09:56:26.230Z,101696.25
2023-04-18T09:59:10.056Z,101699.72
2023-04-18T10:01:37.296Z,101704.00
2023-04-18T10:04:06.741Z,101700.81
2023-04-18T18:34:32.174Z,101751.44
2023-04-18T18:36:58.733Z,101747.06
2023-04-18T18:39:25.313Z,101750.56
2023-04-18T18:41:58.607Z,101748.78
2023-04-18T18:44:25.145Z,101750.56
2023-04-18T18:46:54.279Z,101747.94
2023-04-18T18:49:21.845Z,101740.94
2023-04-18T18:51:48.386Z,101751.44
2023-04-18T18:54:17.124Z,101740.91
2023-04-18T18:56:45.283Z,101751.44
2023-04-18T18:59:12.101Z,101755.81
2023-04-18T19:01:38.900Z,101755.81
2023-04-18T19:04:05.799Z,101752.28
2023-04-18T19:06:32.579Z,101751.41
2023-04-18T19:09:01.836Z,101747.03
2023-04-18T19:11:29.531Z,101754.03
2023-04-18T19:13:56.110Z,101747.91
2023-04-18T19:16:23.095Z,101744.41
2023-04-18T19:18:52.543Z,101742.66
2023-04-18T19:21:20.282Z,101750.56
2023-04-18T19:23:46.973Z,101753.19
2023-04-18T19:26:14.606Z,101749.66
2023-04-18T19:28:41.573Z,101753.16
2023-04-18T19:31:09.605Z,101746.16
2023-04-18T19:33:36.260Z,101748.78
2023-04-18T19:36:02.949Z,101749.66
2023-04-18T19:38:29.504Z,101751.41
2023-04-18T19:40:56.148Z,101743.56
2023-04-18T19:43:22.705Z,101746.19
2023-04-18T19:45:50.928Z,101751.41
2023-04-18T19:48:17.636Z,101746.16
2023-04-18T19:50:44.704Z,101751.38
2023-04-18T19:53:11.254Z,101751.38
2023-04-18T19:55:38.420Z,101745.25
2023-04-18T19:58:05.873Z,101750.47
2023-04-18T20:00:34.154Z,101750.47
2023-04-18T20:03:02.761Z,101753.97
2023-04-18T20:05:29.481Z,101756.56
2023-04-18T20:07:56.128Z,101756.56
2023-04-18T20:10:24.459Z,101764.38
2023-04-18T20:12:51.198Z,101767.00
2023-04-18T20:15:17.860Z,101766.13
2023-04-18T20:17:44.717Z,101764.34
2023-04-18T20:20:11.908Z,101766.06
2023-04-18T20:22:40.387Z,101769.53
2023-04-18T20:25:07.275Z,101766.03
2023-04-18T20:27:33.896Z,101765.97
2023-04-18T20:30:00.492Z,101765.97
2023-04-18T20:32:27.643Z,101765.09
2023-04-18T20:34:55.073Z,101758.94
2023-04-18T20:37:21.665Z,101766.78
2023-04-18T20:39:48.641Z,101764.16
2023-04-18T20:42:15.884Z,101761.53
2023-04-18T20:44:46.795Z,101764.97
2023-04-18T20:47:15.472Z,101770.22
2023-04-18T20:49:42.535Z,101764.94
2023-04-18T20:52:13.355Z,101771.91
2023-04-18T20:54:41.199Z,101769.25
2023-04-18T20:57:08.152Z,101769.25
2023-04-18T20:59:34.742Z,101765.75
2023-04-18T21:02:01.535Z,101769.22
2023-04-18T21:04:28.411Z,101773.56
2023-04-18T21:06:55.115Z,101770.06
2023-04-18T21:09:21.806Z,101773.53
2023-04-18T21:11:48.358Z,101775.28
2023-04-18T21:14:17.123Z,101775.25
2023-04-18T21:16:44.062Z,101785.66
2023-04-18T21:19:11.076Z,101788.25
2023-04-18T21:21:37.677Z,101783.00
2023-04-18T21:24:06.727Z,101783.84
2023-04-18T21:26:33.322Z,101790.84
2023-04-18T21:29:04.807Z,101780.34
2023-04-18T21:31:33.818Z,101785.56
2023-04-18T21:34:03.196Z,101782.06
2023-04-18T21:36:30.990Z,101780.31
2023-04-18T21:38:59.285Z,101780.31
2023-04-18T21:41:26.309Z,101788.09
2023-04-18T21:43:53.242Z,101788.97
2023-04-18T21:46:20.921Z,101787.19
2023-04-18T21:48:47.910Z,101788.03
2023-04-18T21:51:16.833Z,101795.84
2023-04-18T21:53:43.710Z,101787.97
2023-04-18T21:56:10.990Z,101798.41
2023-04-18T21:58:37.727Z,101795.75
2023-04-18T22:01:04.471Z,101795.72
2023-04-18T22:03:31.857Z,101793.94
2023-04-18T22:05:58.947Z,101793.06
2023-04-18T22:08:26.329Z,101791.28
2023-04-18T22:11:00.390Z,101789.53
2023-04-18T22:13:34.834Z,101791.25
2023-04-18T22:16:03.157Z,101786.03
2023-04-18T22:18:33.801Z,101787.75
2023-04-18T22:21:03.307Z,101780.78
2023-04-18T22:23:30.665Z,101782.47
2023-04-18T22:25:57.228Z,101788.56
2023-04-18T22:28:23.862Z,101793.75
2023-04-18T22:30:51.157Z,101793.75
2023-04-18T22:33:19.399Z,101792.78
2023-04-18T22:35:48.621Z,101791.00
2023-04-18T22:38:15.851Z,101780.47
2023-04-18T22:40:42.451Z,101790.84
2023-04-18T22:43:12.117Z,101784.63
2023-04-18T22:45:38.681Z,101788.03
2023-04-18T22:48:05.441Z,101782.78
2023-04-18T22:50:33.594Z,101787.13
2023-04-18T22:53:00.146Z,101782.81
2023-04-18T22:55:26.711Z,101779.28
2023-04-18T22:57:54.017Z,101779.28
2023-04-18T23:00:20.651Z,101784.53
2023-04-18T23:02:47.331Z,101776.66
2023-04-18T23:05:16.657Z,101783.66
2023-04-18T23:07:43.260Z,101780.09
2023-04-18T23:10:10.499Z,101787.84
2023-04-18T23:12:37.110Z,101791.28
2023-04-18T23:15:04.003Z,101780.81
2023-04-18T23:17:30.636Z,101786.00
2023-04-18T23:19:57.934Z,101787.72
2023-04-18T23:22:24.576Z,101785.09
2023-04-18T23:24:51.447Z,101785.88
2023-04-18T23:27:19.825Z,101783.19
2023-04-18T23:29:49.537Z,101786.66
2023-04-18T23:32:16.391Z,101782.28
2023-04-18T23:34:43.045Z,101790.13
2023-04-18T23:37:09.732Z,101791.81
2023-04-18T23:39:36.432Z,101789.13
2023-04-18T23:42:03.874Z,101790.81
2023-04-18T23:44:31.687Z,101799.47
2023-04-18T23:46:58.968Z,101801.31
2023-04-18T23:49:27.652Z,101799.63
2023-04-18T23:51:54.260Z,101797.19
2023-04-18T23:54:20.888Z,101792.94
2023-04-18T23:56:47.473Z,101792.81
2023-04-18T23:59:14.030Z,101800.56
